Latest Weather Observations for Maatsuyker Island

IDT60801

Issued at 7:31 pm EST Wednesday 26 April 2017 (issued every 30 minutes, with the page automatically refreshed every 10 minutes)

About weather observations | Map of weather stations | Latest weather observations for TAS | Other Formats
Station Details ID: 094041 Name: MAATSUYKER ISLAND LIGHTHOUSE Lat: -43.66 Lon: 146.27 Height: 146.5 m
Data from the previous 72 hours. | See also: Recent months at Maatsuyker Island
Date/Time
EST
Temp
°C
App
Temp
°C
Dew
Point
°C
Rel
Hum
%
Delta-T
°C
Wind Press
QNH
hPa
Press
MSL
hPa
Rain since
9am
mm
Dir  Spd
km/h
Gust
km/h
Spd
kts
Gust
kts
26/07:30pm 8.4 -0.6 0.1 56 3.3 S 37 50 20 27 1015.9 - 0.8
26/07:00pm 8.0 -1.3 0.5 59 3.0 S 39 50 21 27 1015.7 - 0.6
26/06:31pm 7.3 -2.0 2.8 73 1.9 S 41 59 22 32 1015.2 - 0.6
26/06:30pm 7.4 -2.5 2.9 73 1.9 S 44 59 24 32 1015.1 - 0.6
26/06:00pm 8.1 -2.6 0.1 57 3.2 SSE 46 57 25 31 1014.2 1014.2 0.6
26/05:37pm 8.0 -1.8 2.0 66 2.5 SSE 43 63 23 34 1013.6 - 0.6
26/05:30pm 8.2 -1.7 1.7 63 2.7 SSE 43 54 23 29 1013.6 - 0.6
26/05:00pm 8.0 -4.4 1.4 63 2.7 SSE 56 65 30 35 1013.1 - 0.6
26/04:41pm 8.1 -2.6 2.4 67 2.4 SSE 48 67 26 36 1012.8 - 0.6
26/04:34pm 7.6 -2.1 2.9 72 2.0 SSE 43 50 23 27 1013.0 - 0.6
26/04:30pm 7.3 -0.3 2.8 73 1.9 SE 32 50 17 27 1012.9 - 0.6
26/04:21pm 7.2 2.5 2.9 74 1.8 NE 17 50 9 27 1012.6 - 0.4
26/04:20pm 7.2 -4.6 2.7 73 1.9 SSE 54 74 29 40 1012.4 - 0.4
26/04:00pm 7.6 -4.3 4.2 79 1.5 SSE 56 69 30 37 1011.9 - 0.4
26/03:35pm 7.9 -3.1 3.0 71 2.1 S 50 57 27 31 1012.0 - 0.4
26/03:30pm 7.1 -1.1 2.6 73 1.9 SE 35 54 19 29 1012.2 - 0.4
26/03:03pm 7.1 -1.6 4.1 81 1.3 SSE 39 59 21 32 1011.7 - 0.4
26/03:00pm 6.9 -6.4 4.1 82 1.2 SSE 63 74 34 40 1011.4 1011.4 0.4
26/02:56pm 7.1 -6.5 4.4 83 1.2 SSE 65 74 35 40 1011.1 - 0.4
26/02:47pm 7.4 -4.6 4.7 83 1.2 S 57 76 31 41 1011.3 - 0.2
26/02:39pm 7.0 -4.6 4.0 81 1.3 S 54 61 29 33 1011.6 - 0.2
26/02:30pm 8.9 -6.5 1.7 60 3.0 S 72 80 39 43 1010.4 - 0.0
26/02:29pm 9.1 -6.2 2.3 62 2.9 S 72 80 39 43 1010.4 - 0.0
26/02:27pm 9.7 -1.4 2.5 61 3.1 S 50 69 27 37 1010.6 - 0.0
26/02:00pm 9.8 -1.4 1.7 57 3.4 S 50 59 27 32 1010.4 - 0.0
26/01:30pm 9.0 -2.0 1.0 57 3.3 S 48 57 26 31 1010.3 - 0.0
26/01:00pm 9.1 -2.2 3.6 68 2.4 S 52 61 28 33 1010.2 - 0.0
26/12:35pm 7.8 -6.2 2.3 68 2.3 S 65 83 35 45 1009.8 - 0.0
26/12:30pm 7.4 -7.8 2.9 73 1.9 S 72 83 39 45 1009.4 - 0.0
26/12:18pm 7.7 -6.6 4.5 80 1.4 S 69 76 37 41 1009.4 - 0.0
26/12:11pm 7.9 -7.2 3.5 74 1.9 SSW 72 85 39 46 1009.4 - 0.0
26/12:00pm 8.9 -1.3 3.4 68 2.4 SSW 46 65 25 35 1009.9 1009.9 0.0
26/11:30am 8.7 -1.8 1.2 59 3.1 S 46 57 25 31 1009.5 - 0.0
26/11:18am 9.0 -1.0 2.4 63 2.8 S 44 52 24 28 1009.3 - 0.0
26/11:10am 9.1 2.0 1.1 57 3.3 SW 28 46 15 25 1009.6 - 0.0
26/11:00am 8.9 -0.5 -0.1 53 3.6 SSW 39 46 21 25 1009.5 - 0.0
26/10:55am 8.4 -0.8 1.1 60 3.0 SW 39 44 21 24 1009.4 - 0.0
26/10:48am 7.8 -0.9 2.0 67 2.4 S 37 43 20 23 1009.0 - 0.0
26/10:46am 7.8 -2.0 2.0 67 2.4 SSW 43 59 23 32 1009.1 - 0.0
26/10:32am 9.3 1.5 -0.8 49 4.0 SW 30 50 16 27 1008.9 - 0.0
26/10:30am 9.1 1.2 -1.8 46 4.2 WSW 30 37 16 20 1009.0 - 0.0
26/10:00am 8.8 1.0 -0.9 50 3.8 WSW 30 41 16 22 1008.6 - 0.0
26/09:30am 8.6 0.9 0.1 55 3.4 SW 30 43 16 23 1008.5 - 0.0
26/09:00am 8.3 1.0 -0.3 54 3.4 WSW 28 41 15 22 1008.4 1008.4 -
26/08:30am 8.2 -0.5 -0.7 53 3.5 SW 35 48 19 26 1007.8 - -
26/08:00am 8.3 0.1 0.1 56 3.3 SW 33 46 18 25 1007.2 - -
26/07:53am 8.2 -1.3 -0.7 53 3.5 WSW 39 46 21 25 1007.2 - -
26/07:50am 8.2 -0.4 0.2 57 3.2 SSW 35 54 19 29 1007.1 - -
26/07:30am 8.2 -1.4 1.4 62 2.8 SW 41 56 22 30 1006.7 - -
26/07:18am 8.6 -0.3 3.3 69 2.3 SW 39 59 21 32 1006.2 - -
26/07:14am 8.5 0.3 2.6 66 2.5 SW 35 46 19 25 1006.2 - -
26/07:00am 8.5 -0.5 0.3 56 3.3 W 37 54 20 29 1006.2 - -
26/06:59am 8.5 0.0 0.6 57 3.2 W 35 54 19 29 1006.1 - -
26/06:48am 8.6 0.0 0.2 55 3.4 W 35 44 19 24 1005.8 - -
26/06:30am 8.3 -0.8 -0.9 52 3.6 SW 37 48 20 26 1005.4 - -
26/06:00am 8.5 -1.5 0.9 59 3.1 SW 43 57 23 31 1004.8 1004.8 -
26/05:48am 8.9 0.6 2.0 62 2.9 WSW 35 54 19 29 1004.5 - -
26/05:30am 8.6 -0.7 0.5 57 3.3 WSW 39 54 21 29 1004.2 - -
26/05:00am 8.5 -1.7 0.0 55 3.4 WSW 43 57 23 31 1003.7 - -
26/04:30am 8.6 -1.4 2.0 63 2.8 SW 44 59 24 32 1002.9 - -
26/04:23am 8.3 -2.7 1.0 60 3.0 WSW 48 57 26 31 1002.8 - -
26/04:08am 8.7 0.3 3.7 71 2.2 SSW 37 56 20 30 1002.4 - -
26/04:00am 8.6 -1.1 4.1 73 2.0 SSW 44 57 24 31 1002.3 - -
26/03:39am 8.4 -1.2 4.4 76 1.8 SSW 44 63 24 34 1002.0 - -
26/03:30am 8.4 -2.3 4.6 77 1.7 SSW 50 63 27 34 1001.9 - -
26/03:03am 8.5 -0.3 5.4 81 1.4 SW 41 59 22 32 1001.6 - -
26/03:00am 8.5 -0.4 5.2 80 1.5 SW 41 56 22 30 1001.6 1001.6 -
26/02:30am 8.2 0.3 4.6 78 1.6 SW 35 50 19 27 1001.3 - -
26/02:01am 8.3 0.4 6.1 86 1.0 SW 37 56 20 30 1000.9 - -
26/02:00am 8.3 0.8 6.1 86 1.0 SW 35 48 19 26 1000.9 - -
26/01:39am 8.3 -0.3 6.6 89 0.8 SW 41 59 22 32 1000.8 - -
26/01:30am 8.6 0.5 6.9 89 0.8 SW 39 54 21 29 1000.6 - -
26/01:18am 8.8 2.0 6.9 88 0.9 SW 32 54 17 29 1000.4 - -
26/01:00am 8.7 1.0 7.2 90 0.7 SW 37 50 20 27 1000.3 - -
26/12:31am 8.7 1.4 7.0 89 0.8 WSW 35 54 19 29 1000.2 - -
26/12:30am 8.6 1.6 6.9 89 0.8 WSW 33 50 18 27 1000.1 - -
26/12:27am 8.9 3.0 7.4 90 0.7 WSW 28 46 15 25 1000.1 - -
26/12:00am 9.0 3.0 7.1 88 0.9 W 28 41 15 22 999.9 999.9 -
 
Date/Time
EST
Temp
°C
App
Temp
°C
Dew
Point
°C
Rel
Hum
%
Delta-T
°C
Wind Press
QNH
hPa
Press
MSL
hPa
Rain since
9am
mm
Dir  Spd
km/h
Gust
km/h
Spd
kts
Gust
kts
25/11:39pm 9.6 3.8 8.0 90 0.8 W 28 46 15 25 999.5 - -
25/11:30pm 9.3 3.0 7.4 88 0.9 W 30 37 16 20 999.4 - -
25/11:00pm 9.3 2.5 7.0 85 1.1 W 32 43 17 23 999.0 - -
25/10:30pm 9.6 2.5 8.0 90 0.8 W 35 48 19 26 998.9 - -
25/10:09pm 9.8 3.8 8.8 93 0.5 W 30 48 16 26 998.9 - -
25/10:00pm 9.9 3.3 8.5 91 0.7 W 33 48 18 26 998.8 - -
25/09:30pm 10.5 4.0 9.1 91 0.7 W 33 41 18 22 998.4 - -
25/09:28pm 10.5 4.1 9.3 92 0.6 W 33 39 18 21 998.4 - -
25/09:00pm 10.9 0.7 9.9 93 0.5 NW 54 63 29 34 997.8 997.8 -
25/08:44pm 10.6 -0.1 9.4 92 0.6 NW 56 65 30 35 997.6 - -
25/08:32pm 11.0 4.9 9.6 91 0.7 NW 32 61 17 33 998.4 - -
25/08:30pm 11.4 6.5 9.8 90 0.8 NNW 26 37 14 20 998.3 - -
25/08:00pm 11.1 4.8 9.1 87 1.0 NNW 32 43 17 23 998.3 - -
25/07:30pm 11.4 5.1 9.6 89 0.9 NNW 33 50 18 27 998.3 - -
25/07:00pm 11.8 6.3 9.3 85 1.3 NNW 28 33 15 18 998.5 - -
25/06:30pm 11.5 5.7 9.3 86 1.1 NNW 30 39 16 21 998.6 - -
25/06:00pm 12.1 6.0 9.6 85 1.3 NNW 32 43 17 23 998.5 998.5 -
25/05:30pm 11.5 5.9 10.0 90 0.8 NNW 30 44 16 24 998.7 - -
25/05:10pm 11.4 1.0 9.4 87 1.0 NNW 54 72 29 39 998.2 - -
25/05:09pm 11.6 0.7 9.4 86 1.1 NNW 57 72 31 39 998.0 - -
25/05:05pm 12.8 6.1 9.7 81 1.6 NNW 35 56 19 30 998.2 - -
25/05:00pm 12.4 6.2 10.1 86 1.2 NNW 33 46 18 25 998.6 - -
25/04:30pm 12.3 2.0 9.6 83 1.4 NW 54 67 29 36 998.3 - -
25/04:26pm 12.3 1.5 10.0 86 1.2 NW 57 67 31 36 998.3 - -
25/04:10pm 12.2 4.9 10.3 88 1.0 NNW 39 57 21 31 998.9 - -
25/04:00pm 12.3 3.4 10.6 89 0.9 NNW 48 65 26 35 998.7 - -
25/03:56pm 13.2 5.2 9.1 76 2.1 NNW 41 61 22 33 998.7 - -
25/03:30pm 13.8 5.1 8.5 70 2.7 NNW 44 52 24 28 999.0 - -
25/03:00pm 13.5 4.1 8.6 72 2.5 NW 48 57 26 31 999.1 999.1 -
25/02:30pm 13.2 4.2 8.9 75 2.2 NW 46 54 25 29 999.5 - -
25/02:00pm 14.0 5.1 9.2 73 2.5 NW 46 56 25 30 999.9 - -
25/01:30pm 14.1 5.6 9.3 73 2.5 NNW 44 50 24 27 1000.6 - -
25/01:00pm 13.3 4.9 8.8 74 2.3 NNW 43 50 23 27 1001.0 - -
25/12:30pm 13.1 4.6 8.6 74 2.3 NW 43 50 23 27 1001.6 - -
25/12:00pm 13.0 5.9 8.0 71 2.5 NNW 35 44 19 24 1002.5 1002.4 -
25/11:30am 12.9 8.9 10.6 86 1.2 NNW 22 28 12 15 1003.3 - -
25/11:00am 12.0 8.5 10.9 93 0.6 N 20 28 11 15 1003.8 - -
25/10:30am 12.5 9.0 10.2 86 1.2 NNW 19 24 10 13 1004.1 - -
25/10:00am 12.4 9.0 10.5 88 1.0 NNW 19 26 10 14 1004.8 - -
25/09:30am 12.1 8.7 10.6 90 0.8 NNW 19 24 10 13 1005.2 - -
25/09:00am 12.0 8.5 10.3 89 0.9 NNW 19 24 10 13 1005.5 1005.5 4.8
25/08:30am 12.3 8.8 10.2 87 1.1 NNW 19 26 10 14 1005.6 - 4.8
25/08:00am 12.3 8.9 10.4 88 1.0 NNW 19 26 10 14 1005.8 - 4.8
25/07:30am 12.4 6.7 9.7 83 1.4 NW 30 35 16 19 1005.8 - 4.8
25/07:00am 12.3 6.3 10.2 87 1.1 NW 32 35 17 19 1005.7 - 4.8
25/06:30am 12.3 5.8 10.2 87 1.1 NW 35 39 19 21 1005.8 - 4.8
25/06:00am 12.3 7.1 10.2 87 1.1 NW 28 33 15 18 1006.1 1006.1 4.8
25/05:30am 12.3 7.1 10.4 88 1.0 NW 28 32 15 17 1006.5 - 4.8
25/05:00am 12.2 7.1 10.5 89 0.9 NW 28 32 15 17 1006.5 - 4.8
25/04:30am 12.3 7.2 10.6 89 0.9 NW 28 32 15 17 1006.8 - 4.8
25/04:00am 12.4 6.4 10.7 89 0.9 NW 33 41 18 22 1007.0 - 4.8
25/03:00am 12.4 5.6 10.5 88 1.0 NW 37 43 20 23 1007.6 1007.6 4.8
25/02:30am 12.6 5.9 10.9 89 0.9 NW 37 43 20 23 1008.0 - 4.8
25/02:00am 12.9 7.0 11.2 89 0.9 NW 33 39 18 21 1008.4 - 4.8
25/01:30am 12.8 7.1 11.1 89 0.9 NW 32 39 17 21 1008.8 - 4.8
25/01:00am 12.9 9.2 11.6 92 0.7 NNW 22 28 12 15 1009.5 - 4.8
25/12:30am 12.5 9.3 11.8 95 0.4 NNW 20 26 11 14 1010.0 - 4.8
25/12:00am 12.9 8.5 11.8 93 0.6 NW 26 35 14 19 1010.4 1010.4 2.6
 
Date/Time
EST
Temp
°C
App
Temp
°C
Dew
Point
°C
Rel
Hum
%
Delta-T
°C
Wind Press
QNH
hPa
Press
MSL
hPa
Rain since
9am
mm
Dir  Spd
km/h
Gust
km/h
Spd
kts
Gust
kts
24/11:30pm 13.4 9.5 12.1 92 0.7 NW 24 30 13 16 1010.8 - 1.4
24/11:00pm 13.6 8.9 12.1 91 0.8 NW 28 33 15 18 1011.1 - 1.4
24/10:30pm 13.6 8.0 11.6 88 1.1 NW 32 39 17 21 1011.3 - 1.4
24/10:00pm 13.8 8.5 12.5 92 0.7 NNW 32 35 17 19 1011.4 - 1.4
24/09:30pm 13.7 8.7 12.2 91 0.8 NNW 30 35 16 19 1011.8 - 1.4
24/09:00pm 13.9 9.0 12.4 91 0.8 NNW 30 35 16 19 1012.0 1012.0 1.4
24/08:30pm 14.0 8.7 12.5 91 0.8 NNW 32 35 17 19 1012.1 - 1.4
24/08:00pm 14.1 9.6 12.6 91 0.8 NNW 28 37 15 20 1012.3 - 1.4
24/07:30pm 14.1 11.2 13.0 93 0.6 NNW 20 26 11 14 1012.8 - 1.4
24/07:00pm 14.1 11.5 13.2 94 0.5 NNW 19 26 10 14 1013.1 - 1.4
24/06:30pm 13.9 11.7 13.2 96 0.4 N 17 20 9 11 1013.2 - 1.4
24/06:00pm 13.9 12.1 13.2 96 0.4 NNW 15 19 8 10 1013.3 1013.3 1.4
24/05:30pm 13.8 11.5 12.9 94 0.5 N 17 22 9 12 1013.4 - 1.4
24/05:00pm 13.8 10.8 12.7 93 0.6 NNW 20 24 11 13 1013.5 - 1.4
24/04:30pm 13.7 11.3 12.8 94 0.5 N 17 20 9 11 1013.7 - 1.4
24/04:00pm 13.8 13.0 12.9 94 0.5 N 9 11 5 6 1014.0 - 1.2
24/03:30pm 14.1 13.6 12.6 91 0.8 N 7 11 4 6 1014.3 - 0.6
24/03:00pm 14.0 13.5 12.5 91 0.8 NNW 7 11 4 6 1014.4 1014.4 0.4
24/02:30pm 14.1 13.6 12.5 90 0.9 NNW 7 11 4 6 1014.8 - 0.4
24/02:00pm 14.1 14.1 12.3 89 1.0 NW 4 9 2 5 1015.1 - 0.4
24/01:30pm 13.6 13.0 11.7 88 1.0 NNW 6 9 3 5 1015.5 - 0.4
24/01:00pm 13.6 12.7 11.4 86 1.2 NNW 7 9 4 5 1016.1 - 0.4
24/12:30pm 14.0 13.8 11.8 86 1.2 N 4 9 2 5 1016.6 - 0.4
24/12:00pm 13.6 12.4 11.7 88 1.0 NNW 9 11 5 6 1017.2 1017.2 0.2
24/11:30am 13.7 12.5 11.5 86 1.2 N 9 13 5 7 1017.6 - 0.2
24/11:00am 13.4 10.9 11.1 86 1.2 N 15 19 8 10 1017.9 - 0.2
24/10:30am 13.5 10.6 11.0 85 1.3 NNW 17 20 9 11 1018.1 - 0.2
24/10:00am 13.0 10.8 10.7 86 1.2 N 13 15 7 8 1018.4 - 0.2
24/09:30am 12.9 11.1 10.8 87 1.1 N 11 13 6 7 1018.8 - 0.2
24/09:00am 12.7 10.8 10.6 87 1.1 N 11 15 6 8 1019.0 1019.0 0.4
24/08:30am 13.0 10.5 9.7 80 1.7 N 13 17 7 9 1019.1 - 0.4
24/08:00am 11.9 9.5 10.2 89 0.9 NNE 13 15 7 8 1019.3 - 0.4
24/07:30am 11.8 9.5 10.6 92 0.6 N 13 15 7 8 1019.5 - 0.4
24/07:00am 11.9 10.1 10.7 92 0.6 N 11 15 6 8 1019.6 - 0.4
24/06:30am 11.8 9.7 9.8 87 1.0 N 11 13 6 7 1020.0 - 0.4
24/06:00am 11.8 10.7 10.0 89 0.9 S 6 7 3 4 1020.1 1020.1 0.4
24/05:30am 11.7 11.7 9.7 87 1.0 CALM 0 0 0 0 1020.5 - 0.4
24/05:00am 11.7 10.9 9.5 86 1.1 SE 4 7 2 4 1020.6 - 0.4
24/04:30am 11.6 10.3 9.2 85 1.2 E 6 9 3 5 1020.6 - 0.4
24/04:00am 11.6 10.7 9.2 85 1.2 NE 4 9 2 5 1020.9 - 0.4
24/03:30am 11.9 10.4 9.1 83 1.4 NW 7 11 4 6 1021.0 - 0.4
24/03:00am 11.9 10.1 9.5 85 1.2 NNW 9 17 5 9 1021.3 1021.4 0.4
24/02:30am 11.7 10.5 9.5 86 1.1 NW 6 11 3 6 1021.8 - 0.4
24/02:00am 11.9 10.5 9.5 85 1.2 NW 7 13 4 7 1022.1 - 0.4
24/01:30am 12.1 10.3 9.5 84 1.3 N 9 19 5 10 1022.4 - 0.4
24/01:00am 12.1 9.5 9.5 84 1.3 N 13 26 7 14 1022.7 - 0.4
24/12:30am 12.2 10.1 9.9 86 1.2 WNW 11 17 6 9 1022.7 - 0.4
24/12:00am 12.0 9.9 9.8 86 1.1 WNW 11 20 6 11 1023.1 1023.2 0.4
 
Date/Time
EST
Temp
°C
App
Temp
°C
Dew
Point
°C
Rel
Hum
%
Delta-T
°C
Wind Press
QNH
hPa
Press
MSL
hPa
Rain since
9am
mm
Dir  Spd
km/h
Gust
km/h
Spd
kts
Gust
kts
23/11:30pm 12.1 10.1 10.0 87 1.1 NW 11 20 6 11 1023.7 - 0.4
23/11:00pm 12.2 10.6 10.3 88 1.0 WNW 9 15 5 8 1024.1 - 0.4
23/10:30pm 12.2 10.4 10.7 90 0.8 NW 11 22 6 12 1024.3 - 0.4
23/10:00pm 12.3 10.9 11.0 92 0.7 NW 9 17 5 9 1024.6 - 0.4
23/09:30pm 12.5 11.2 11.2 92 0.7 NW 9 15 5 8 1024.8 - 0.4
23/09:00pm 12.6 11.3 11.1 91 0.8 NW 9 15 5 8 1024.8 1024.8 0.4
23/08:30pm 12.4 11.0 10.9 90 0.8 NW 9 15 5 8 1024.6 - 0.4
23/08:00pm 12.4 11.0 10.9 90 0.8 NW 9 13 5 7 1024.7 - 0.4

Other Formats:

Comma delimited format used in spreadsheet applications
http://www.bom.gov.au/fwo/IDT60801/IDT60801.94962.axf

JavaScript Object Notation format (JSON) in row-major order
http://www.bom.gov.au/fwo/IDT60801/IDT60801.94962.json